createdAt,value
2024-03-07T00:00:40.431Z,98882.64
2024-03-07T00:06:05.202Z,98883.66
2024-03-07T00:11:10.349Z,98881.20
2024-03-07T00:16:14.993Z,98887.64
2024-03-07T00:21:19.644Z,98889.83
2024-03-07T00:26:24.410Z,98885.59
2024-03-07T00:31:30.547Z,98883.40
2024-03-07T00:36:35.183Z,98880.57
2024-03-07T00:41:39.565Z,98878.92
2024-03-07T00:46:44.160Z,98878.38
2024-03-07T00:51:48.596Z,98877.12
2024-03-07T00:56:53.089Z,98875.24
2024-03-07T01:01:57.418Z,98879.45
2024-03-07T01:07:02.175Z,98873.27
2024-03-07T01:12:07.496Z,98870.74
2024-03-07T01:17:12.972Z,98871.16
2024-03-07T01:22:17.387Z,98869.73
2024-03-07T01:27:21.643Z,98860.89
2024-03-07T01:32:26.003Z,98858.92
2024-03-07T01:37:30.466Z,98857.83
2024-03-07T01:42:34.952Z,98853.52
2024-03-07T01:47:39.658Z,98856.89
2024-03-07T01:52:44.381Z,98860.18
2024-03-07T01:57:48.579Z,98857.04
2024-03-07T02:02:54.144Z,98855.08
2024-03-07T02:07:58.530Z,98849.81
2024-03-07T02:13:03.647Z,98842.67
2024-03-07T02:18:10.147Z,98841.82
2024-03-07T02:23:16.186Z,98841.64
2024-03-07T02:28:20.696Z,98839.23
2024-03-07T02:33:25.362Z,98838.36
2024-03-07T02:38:29.815Z,98834.88
2024-03-07T02:43:34.190Z,98830.27
2024-03-07T02:48:38.627Z,98836.66
2024-03-07T02:53:43.616Z,98828.83
2024-03-07T02:58:48.038Z,98835.09
2024-03-07T03:03:52.821Z,98839.87
2024-03-07T03:08:57.559Z,98841.42
2024-03-07T03:14:01.706Z,98844.09
2024-03-07T03:19:06.441Z,98845.34
2024-03-07T03:24:11.372Z,98846.75
2024-03-07T03:29:17.141Z,98851.58
2024-03-07T03:34:21.892Z,98849.15
2024-03-07T03:39:27.813Z,98848.43
2024-03-07T03:44:32.287Z,98854.31
2024-03-07T03:49:36.501Z,98853.98
2024-03-07T03:54:40.919Z,98857.48
2024-03-07T03:59:45.791Z,98859.38
2024-03-07T04:04:50.481Z,98860.55
2024-03-07T04:09:58.900Z,98862.71
2024-03-07T04:15:04.651Z,98866.46
2024-03-07T04:20:11.328Z,98866.14
2024-03-07T04:25:16.349Z,98868.48
2024-03-07T04:30:20.752Z,98869.25
2024-03-07T04:35:25.047Z,98875.89
2024-03-07T04:40:29.369Z,98875.17
2024-03-07T04:45:33.672Z,98876.80
2024-03-07T04:50:38.084Z,98872.34
2024-03-07T04:55:42.195Z,98878.74
2024-03-07T05:00:46.909Z,98876.33
2024-03-07T05:05:51.233Z,98877.73
2024-03-07T05:10:55.594Z,98881.48
2024-03-07T05:16:00.792Z,98886.30
2024-03-07T05:21:29.902Z,98887.23
2024-03-07T05:26:41.343Z,98890.61
2024-03-07T05:31:47.666Z,98892.64
2024-03-07T05:36:52.250Z,98890.88
2024-03-07T05:42:00.143Z,98903.15
2024-03-07T05:47:05.118Z,98905.15
2024-03-07T05:52:09.522Z,98904.29
2024-03-07T05:57:14.155Z,98906.31
2024-03-07T06:02:18.827Z,98905.36
2024-03-07T06:07:23.492Z,98917.95
2024-03-07T06:12:28.512Z,98917.71
2024-03-07T06:17:33.433Z,98917.52
2024-03-07T06:22:37.525Z,98919.63
2024-03-07T06:27:49.685Z,98922.36
2024-03-07T06:32:54.183Z,98919.56
2024-03-07T06:37:58.354Z,98923.84
2024-03-07T06:43:04.532Z,98922.67
2024-03-07T06:48:09.507Z,98928.41
2024-03-07T06:53:14.202Z,98929.92
2024-03-07T06:58:18.647Z,98931.30
2024-03-07T07:03:23.238Z,98931.39
2024-03-07T07:08:30.617Z,98932.70
2024-03-07T07:13:35.237Z,98931.15
2024-03-07T07:18:40.008Z,98933.40
2024-03-07T07:23:44.613Z,98932.38
2024-03-07T07:28:49.173Z,98934.55
2024-03-07T07:33:53.710Z,98931.73
2024-03-07T07:38:59.109Z,98930.23
2024-03-07T07:44:04.006Z,98933.08
2024-03-07T07:49:08.462Z,98936.38
2024-03-07T07:54:12.812Z,98942.52
2024-03-07T07:59:17.454Z,98938.38
2024-03-07T08:04:22.159Z,98942.91
2024-03-07T08:09:27.157Z,98943.38
2024-03-07T08:14:31.528Z,98949.86
2024-03-07T08:19:36.187Z,98947.41
2024-03-07T08:24:40.716Z,98951.33
2024-03-07T08:29:45.222Z,98947.96
2024-03-07T08:34:49.801Z,98949.77
2024-03-07T08:39:54.111Z,98951.78
2024-03-07T08:44:58.681Z,98950.59
2024-03-07T08:50:06.929Z,98955.92
2024-03-07T08:55:14.508Z,98951.46
2024-03-07T09:00:24.335Z,98954.38
2024-03-07T09:05:28.992Z,98952.80
2024-03-07T09:10:33.769Z,98955.55
2024-03-07T09:15:38.667Z,98959.73
2024-03-07T09:20:43.081Z,98967.27
2024-03-07T09:25:47.453Z,98967.23
2024-03-07T09:30:54.160Z,98969.55
2024-03-07T09:35:59.355Z,98975.13
2024-03-07T09:41:03.874Z,98978.05
2024-03-07T09:46:08.463Z,98974.00
2024-03-07T09:51:14.066Z,98982.02
2024-03-07T09:56:19.109Z,98988.52
2024-03-07T10:01:24.101Z,98994.21
2024-03-07T10:06:30.749Z,98998.20
2024-03-07T10:11:35.917Z,98997.02
2024-03-07T10:16:42.281Z,98997.16
2024-03-07T10:21:46.708Z,98998.71
2024-03-07T10:26:50.773Z,98997.77
2024-03-07T10:32:04.514Z,98993.89
2024-03-07T10:37:10.276Z,98991.92
2024-03-07T10:42:15.909Z,98996.63
2024-03-07T10:47:20.599Z,98996.06
2024-03-07T10:52:30.856Z,98999.01
2024-03-07T10:57:41.622Z,99000.27
2024-03-07T11:02:47.868Z,99003.63
2024-03-07T11:07:52.791Z,98999.44
2024-03-07T11:12:58.486Z,98998.81
2024-03-07T11:18:02.620Z,98995.06
2024-03-07T11:23:21.049Z,98993.01
2024-03-07T11:28:32.230Z,98991.36
2024-03-07T11:33:40.472Z,98990.35
2024-03-07T11:38:50.082Z,98992.70
2024-03-07T11:43:56.031Z,98995.61
2024-03-07T11:49:01.566Z,98990.67
2024-03-07T11:54:05.980Z,98991.48
2024-03-07T11:59:14.086Z,98989.45
2024-03-07T12:04:18.505Z,98991.95
2024-03-07T12:09:25.104Z,98991.90
2024-03-07T12:14:29.962Z,98991.36
2024-03-07T12:19:34.391Z,98985.82
2024-03-07T12:24:38.827Z,98984.17
2024-03-07T12:29:44.295Z,98981.93
2024-03-07T12:34:48.713Z,98979.27
2024-03-07T12:40:02.232Z,98975.98
2024-03-07T12:45:07.679Z,98977.17
2024-03-07T12:50:12.285Z,98977.94
2024-03-07T12:55:19.037Z,98984.58
2024-03-07T13:00:23.069Z,98985.41
2024-03-07T13:05:27.204Z,98981.85
2024-03-07T13:10:31.838Z,98983.86
2024-03-07T13:15:38.201Z,98985.48
2024-03-07T13:20:44.164Z,98981.98
2024-03-07T13:25:49.514Z,98985.01
2024-03-07T13:30:55.627Z,98984.51
2024-03-07T13:36:02.152Z,98984.89
2024-03-07T13:41:06.829Z,98984.14
2024-03-07T13:46:12.994Z,98980.59
2024-03-07T13:51:17.193Z,98978.95
2024-03-07T13:56:41.426Z,98974.68
2024-03-07T14:01:54.187Z,98971.87
2024-03-07T14:07:34.097Z,98970.83
2024-03-07T14:13:05.527Z,98969.84
2024-03-07T14:18:36.568Z,98968.71
2024-03-07T14:24:05.130Z,98969.32
2024-03-07T14:29:19.220Z,98967.80
2024-03-07T14:34:25.896Z,98963.09
2024-03-07T14:39:30.513Z,98963.22
2024-03-07T14:44:35.851Z,98964.61
2024-03-07T14:49:40.443Z,98959.68
2024-03-07T14:54:44.706Z,98959.67
2024-03-07T14:59:49.934Z,98958.03
2024-03-07T15:04:55.963Z,98955.84
2024-03-07T15:10:00.320Z,98956.74
2024-03-07T15:15:11.262Z,98960.35
2024-03-07T15:20:23.552Z,98955.22
2024-03-07T15:25:34.742Z,98959.67
2024-03-07T15:30:39.965Z,98958.29
2024-03-07T15:35:44.432Z,98965.00
2024-03-07T15:40:48.628Z,98960.81
2024-03-07T15:45:53.045Z,98956.41
2024-03-07T15:50:58.623Z,98964.37
2024-03-07T15:56:02.852Z,98963.76
2024-03-07T16:01:07.538Z,98969.59
2024-03-07T16:06:11.812Z,98964.54
2024-03-07T16:11:20.001Z,98964.83
2024-03-07T16:16:24.231Z,98974.34
2024-03-07T16:21:28.847Z,98973.31
2024-03-07T16:26:35.901Z,98970.70
2024-03-07T16:31:40.387Z,98972.47
2024-03-07T16:36:45.580Z,98978.46
2024-03-07T16:41:50.199Z,98980.63
2024-03-07T16:46:54.869Z,98984.61
2024-03-07T16:51:59.095Z,98990.68
2024-03-07T16:57:05.361Z,98992.33
2024-03-07T17:02:10.790Z,98998.58
2024-03-07T17:07:14.968Z,98998.63
2024-03-07T17:12:19.322Z,99000.16
2024-03-07T17:17:24.269Z,99005.56
2024-03-07T17:22:28.378Z,99008.31
2024-03-07T17:27:32.609Z,99011.73
2024-03-07T17:32:39.193Z,99014.87
2024-03-07T17:37:44.978Z,99022.40
2024-03-07T17:42:51.017Z,99027.36
2024-03-07T17:47:56.463Z,99026.64
2024-03-07T17:53:01.739Z,99030.80
2024-03-07T17:58:06.301Z,99034.84
2024-03-07T18:03:10.682Z,99030.68
2024-03-07T18:08:33.808Z,99036.08
2024-03-07T18:13:42.334Z,99034.44
2024-03-07T18:18:47.700Z,99040.71
2024-03-07T18:23:52.077Z,99042.46
2024-03-07T18:28:56.256Z,99047.70
2024-03-07T18:34:00.791Z,99046.02
2024-03-07T18:39:15.765Z,99051.17
2024-03-07T18:44:20.215Z,99047.73
2024-03-07T18:49:24.562Z,99049.99
2024-03-07T18:54:28.666Z,99053.66
2024-03-07T18:59:37.652Z,99053.19
2024-03-07T19:04:45.029Z,99054.36
2024-03-07T19:09:49.969Z,99056.36
2024-03-07T19:14:54.647Z,99049.92
2024-03-07T19:19:58.977Z,99055.48
2024-03-07T19:25:04.785Z,99058.80
2024-03-07T19:30:17.332Z,99060.63
2024-03-07T19:35:21.607Z,99060.68
2024-03-07T19:40:25.696Z,99060.80
2024-03-07T19:45:29.829Z,99056.64
2024-03-07T19:50:34.383Z,99057.49
2024-03-07T19:55:38.591Z,99054.44
2024-03-07T20:00:45.321Z,99052.33
2024-03-07T20:05:49.955Z,99049.48
2024-03-07T20:10:54.075Z,99047.58
2024-03-07T20:16:01.723Z,99045.70
2024-03-07T20:21:07.284Z,99049.31
2024-03-07T20:26:11.408Z,99049.90
2024-03-07T20:31:16.748Z,99046.05
2024-03-07T20:36:21.210Z,99047.45
2024-03-07T20:41:25.412Z,99041.59
2024-03-07T20:46:31.257Z,99040.49
2024-03-07T20:51:38.037Z,99037.14
2024-03-07T20:56:49.719Z,99038.73
2024-03-07T21:01:54.018Z,99039.36
2024-03-07T21:06:58.143Z,99034.95
2024-03-07T21:12:02.851Z,99028.63
2024-03-07T21:17:12.001Z,99026.97
2024-03-07T21:22:17.313Z,99027.14
2024-03-07T21:27:21.601Z,99022.73
2024-03-07T21:32:25.883Z,99020.45
2024-03-07T21:37:31.901Z,99017.41
2024-03-07T21:42:36.426Z,99015.27
2024-03-07T21:47:41.919Z,99016.64
2024-03-07T21:52:47.045Z,99013.08
2024-03-07T21:57:55.315Z,99012.04
2024-03-07T22:03:01.769Z,99010.23
2024-03-07T22:08:08.168Z,99001.63
2024-03-07T22:13:12.090Z,99004.00
2024-03-07T22:18:16.421Z,99005.83
2024-03-07T22:23:21.751Z,99005.26
2024-03-07T22:28:26.079Z,98992.20
2024-03-07T22:33:30.694Z,98988.61
2024-03-07T22:38:34.969Z,98991.42
2024-03-07T22:43:39.215Z,98989.94
2024-03-07T22:48:43.690Z,98990.14
2024-03-07T22:53:48.387Z,98994.58
2024-03-07T22:58:53.420Z,98991.83
2024-03-07T23:03:57.567Z,98988.52
2024-03-07T23:09:02.625Z,98986.91
2024-03-07T23:14:06.926Z,98989.06
2024-03-07T23:19:12.862Z,98981.64
2024-03-07T23:24:17.020Z,98983.12
2024-03-07T23:29:21.368Z,98982.00
2024-03-07T23:34:25.803Z,98984.28
2024-03-07T23:39:30.661Z,98984.10
2024-03-07T23:44:34.752Z,98988.06
2024-03-07T23:49:39.032Z,98984.65
2024-03-07T23:54:43.843Z,98984.77
2024-03-07T23:59:49.419Z,98982.48
